createdAt,value
2019-03-04T00:01:10.423Z,6.90
2019-03-04T00:03:36.747Z,6.80
2019-03-04T00:06:03.088Z,6.80
2019-03-04T00:08:29.348Z,6.80
2019-03-04T00:10:55.585Z,6.80
2019-03-04T00:13:21.802Z,6.90
2019-03-04T00:15:48.146Z,6.90
2019-03-04T00:18:14.279Z,6.90
2019-03-04T00:20:40.554Z,7.00
2019-03-04T00:23:06.872Z,7.00
2019-03-04T00:25:33.110Z,7.00
2019-03-04T00:27:59.340Z,7.00
2019-03-04T00:30:25.674Z,7.00
2019-03-04T00:32:51.803Z,7.00
2019-03-04T00:35:17.985Z,7.00
2019-03-04T00:37:44.247Z,6.90
2019-03-04T00:40:12.189Z,6.90
2019-03-04T00:42:38.541Z,6.80
2019-03-04T00:45:06.928Z,6.80
2019-03-04T00:47:33.198Z,6.80
2019-03-04T00:49:59.410Z,6.80
2019-03-04T00:52:25.677Z,6.80
2019-03-04T00:54:51.910Z,6.80
2019-03-04T00:57:18.193Z,6.80
2019-03-04T00:59:44.412Z,6.80
2019-03-04T01:02:10.687Z,6.80
2019-03-04T01:04:37.028Z,6.70
2019-03-04T01:07:03.462Z,6.70
2019-03-04T01:09:29.699Z,6.70
2019-03-04T01:11:55.816Z,6.70
2019-03-04T01:14:22.004Z,6.70
2019-03-04T01:16:48.295Z,6.60
2019-03-04T01:19:14.543Z,6.60
2019-03-04T01:21:40.975Z,6.50
2019-03-04T01:24:07.242Z,6.50
2019-03-04T01:26:33.485Z,6.40
2019-03-04T01:28:59.710Z,6.40
2019-03-04T01:31:26.054Z,6.40
2019-03-04T01:33:52.391Z,6.30
2019-03-04T01:36:18.633Z,6.30
2019-03-04T01:38:45.047Z,6.30
2019-03-04T01:41:11.248Z,6.20
2019-03-04T01:43:37.454Z,6.20
2019-03-04T01:46:03.813Z,6.10
2019-03-04T01:48:30.039Z,6.10
2019-03-04T01:50:56.280Z,6.00
2019-03-04T01:53:22.510Z,6.00
2019-03-04T01:55:48.669Z,5.90
2019-03-04T01:58:14.955Z,5.90
2019-03-04T02:00:41.477Z,5.80
2019-03-04T02:03:07.869Z,5.70
2019-03-04T02:05:34.127Z,5.70
2019-03-04T02:08:00.569Z,5.70
2019-03-04T02:10:26.908Z,5.70
2019-03-04T02:12:53.231Z,5.60
2019-03-04T02:15:19.796Z,5.70
2019-03-04T02:17:46.360Z,5.60
2019-03-04T02:20:14.486Z,5.70
2019-03-04T02:22:40.942Z,5.70
2019-03-04T02:25:32.931Z,5.70
2019-03-04T02:27:59.146Z,5.70
2019-03-04T02:30:26.675Z,5.70
2019-03-04T02:32:53.125Z,5.70
2019-03-04T02:35:19.457Z,5.70
2019-03-04T02:37:45.862Z,5.60
2019-03-04T02:40:13.062Z,5.60
2019-03-04T02:42:39.264Z,5.60
2019-03-04T02:45:12.306Z,5.60
2019-03-04T02:47:38.680Z,5.60
2019-03-04T02:50:06.042Z,5.60
2019-03-04T02:52:32.272Z,5.60
2019-03-04T02:54:58.549Z,5.60
2019-03-04T02:57:24.761Z,5.50
2019-03-04T02:59:51.097Z,5.50
2019-03-04T03:02:17.341Z,5.50
2019-03-04T03:04:43.758Z,5.50
2019-03-04T03:07:09.893Z,5.50
2019-03-04T03:09:36.132Z,5.50
2019-03-04T03:12:02.494Z,5.50
2019-03-04T03:14:28.849Z,5.50
2019-03-04T03:16:55.107Z,5.40
2019-03-04T03:19:21.393Z,5.40
2019-03-04T03:21:47.648Z,5.40
2019-03-04T03:24:13.990Z,5.40
2019-03-04T03:26:40.250Z,5.40
2019-03-04T03:29:06.462Z,5.40
2019-03-04T03:31:32.721Z,5.40
2019-03-04T03:33:59.076Z,5.30
2019-03-04T03:36:25.316Z,5.30
2019-03-04T03:38:51.647Z,5.30
2019-03-04T03:41:17.851Z,5.30
2019-03-04T03:43:44.051Z,5.20
2019-03-04T03:46:10.454Z,5.10
2019-03-04T03:48:36.701Z,5.10
2019-03-04T03:51:03.013Z,5.00
2019-03-04T03:53:29.259Z,4.90
2019-03-04T03:55:55.582Z,4.90
2019-03-04T03:58:24.818Z,4.90
2019-03-04T04:00:49.991Z,4.90
2019-03-04T04:03:16.307Z,4.90
2019-03-04T04:05:42.663Z,4.90
2019-03-04T04:08:08.988Z,4.90
2019-03-04T04:10:35.329Z,4.90
2019-03-04T04:13:01.449Z,4.90
2019-03-04T04:15:27.904Z,5.00
2019-03-04T04:17:54.140Z,5.00
2019-03-04T04:20:20.619Z,5.10
2019-03-04T04:22:46.841Z,5.20
2019-03-04T04:25:13.984Z,5.20
2019-03-04T04:27:40.224Z,5.10
2019-03-04T04:30:10.750Z,5.10
2019-03-04T04:32:36.962Z,5.10
2019-03-04T04:35:04.506Z,5.10
2019-03-04T04:37:30.635Z,5.20
2019-03-04T04:39:56.867Z,5.30
2019-03-04T04:42:23.085Z,5.40
2019-03-04T04:44:49.256Z,5.40
2019-03-04T04:47:15.523Z,5.50
2019-03-04T04:49:41.870Z,5.40
2019-03-04T04:52:08.304Z,5.40
2019-03-04T04:54:34.462Z,5.50
2019-03-04T04:57:00.685Z,5.50
2019-03-04T04:59:26.886Z,5.60
2019-03-04T05:01:53.213Z,5.60
2019-03-04T05:04:19.489Z,5.70
2019-03-04T05:06:45.830Z,5.70
2019-03-04T05:09:12.146Z,5.70
2019-03-04T05:11:38.315Z,5.60
2019-03-04T05:14:04.654Z,5.60
2019-03-04T05:16:30.901Z,5.50
2019-03-04T05:18:57.110Z,5.50
2019-03-04T05:21:23.259Z,5.40
2019-03-04T05:23:49.474Z,5.40
2019-03-04T05:26:15.630Z,5.30
2019-03-04T05:28:41.854Z,5.30
2019-03-04T05:31:08.006Z,5.30
2019-03-04T05:33:34.123Z,5.30
2019-03-04T05:36:00.258Z,5.20
2019-03-04T05:38:26.605Z,5.30
2019-03-04T05:40:52.853Z,5.30
2019-03-04T05:43:19.082Z,5.20
2019-03-04T05:45:45.549Z,5.20
2019-03-04T05:48:12.242Z,5.10
2019-03-04T05:50:38.477Z,5.20
2019-03-04T05:53:04.802Z,5.10
2019-03-04T05:55:31.065Z,5.10
2019-03-04T05:57:57.251Z,5.00
2019-03-04T06:00:25.596Z,4.90
2019-03-04T06:03:04.287Z,4.90
2019-03-04T06:05:30.659Z,4.90
2019-03-04T06:07:58.777Z,4.90
2019-03-04T06:10:25.155Z,4.90
2019-03-04T06:12:51.477Z,4.90
2019-03-04T06:15:19.007Z,5.00
2019-03-04T06:17:45.486Z,5.00
2019-03-04T06:20:13.928Z,5.00
2019-03-04T06:22:40.281Z,5.00
2019-03-04T06:25:12.406Z,5.00
2019-03-04T06:27:38.727Z,5.00
2019-03-04T06:30:20.167Z,5.00
2019-03-04T06:32:46.401Z,5.00
2019-03-04T06:35:13.244Z,5.00
2019-03-04T06:37:39.591Z,5.00
2019-03-04T06:40:11.492Z,5.00
2019-03-04T06:42:37.988Z,5.00
2019-03-04T06:45:07.575Z,5.00
2019-03-04T06:47:33.797Z,5.00
2019-03-04T06:50:00.106Z,4.90
2019-03-04T06:52:27.890Z,4.90
2019-03-04T06:55:01.494Z,4.90
2019-03-04T06:57:28.893Z,4.80
2019-03-04T07:00:16.877Z,4.90
2019-03-04T07:02:53.364Z,5.10
2019-03-04T07:05:39.875Z,5.40
2019-03-04T07:08:11.183Z,5.70
2019-03-04T07:10:37.455Z,6.00
2019-03-04T07:13:03.702Z,6.10
2019-03-04T07:15:30.102Z,6.30
2019-03-04T07:17:56.314Z,6.40
2019-03-04T07:20:22.668Z,6.40
2019-03-04T07:22:48.901Z,6.50
2019-03-04T07:25:15.282Z,6.50
2019-03-04T07:27:41.564Z,6.60
2019-03-04T07:30:13.758Z,6.70
2019-03-04T07:32:40.176Z,6.80
2019-03-04T07:35:07.743Z,6.80
2019-03-04T07:37:34.066Z,6.90
2019-03-04T07:40:00.336Z,7.10
2019-03-04T07:42:26.543Z,7.30
2019-03-04T07:44:52.822Z,7.90
2019-03-04T07:47:19.082Z,8.60
2019-03-04T07:49:47.835Z,9.10
2019-03-04T07:52:13.955Z,9.30
2019-03-04T07:54:41.272Z,9.60
2019-03-04T07:57:08.373Z,9.70
2019-03-04T07:59:34.740Z,9.90
2019-03-04T08:02:00.991Z,9.90
2019-03-04T08:04:27.158Z,10.20
2019-03-04T08:07:02.691Z,10.40
2019-03-04T08:09:41.851Z,10.30
2019-03-04T08:12:31.853Z,10.20
2019-03-04T08:14:58.105Z,10.10
2019-03-04T08:17:24.479Z,10.30
2019-03-04T08:19:50.900Z,10.30
2019-03-04T08:22:17.827Z,10.20
2019-03-04T08:24:44.154Z,10.10
2019-03-04T08:27:10.305Z,10.00
2019-03-04T08:29:36.683Z,9.80
2019-03-04T08:32:05.327Z,9.60
2019-03-04T08:34:31.577Z,9.40
2019-03-04T08:36:57.833Z,9.30
2019-03-04T08:39:24.046Z,9.20
2019-03-04T08:41:50.379Z,9.10
2019-03-04T08:44:16.530Z,9.00
2019-03-04T08:46:42.821Z,8.90
2019-03-04T08:49:09.088Z,8.70
2019-03-04T08:51:35.519Z,8.70
2019-03-04T08:54:01.660Z,8.50
2019-03-04T08:56:27.874Z,8.40
2019-03-04T08:58:54.035Z,8.40
2019-03-04T09:01:20.231Z,8.40
2019-03-04T09:03:48.210Z,8.40
2019-03-04T09:06:14.897Z,8.40
2019-03-04T09:08:43.295Z,8.50
2019-03-04T09:11:09.659Z,8.60
2019-03-04T09:13:39.232Z,8.70
2019-03-04T09:16:05.593Z,8.70
2019-03-04T09:18:32.128Z,8.80
2019-03-04T09:20:58.457Z,8.70
2019-03-04T09:23:24.900Z,8.70
2019-03-04T09:25:54.955Z,8.70
2019-03-04T09:28:21.199Z,8.60
2019-03-04T09:30:47.531Z,8.50
2019-03-04T09:33:13.825Z,8.50
2019-03-04T09:35:40.365Z,8.50
2019-03-04T09:38:06.584Z,8.60
2019-03-04T09:40:34.423Z,8.60
2019-03-04T09:43:01.584Z,8.70
2019-03-04T09:45:38.050Z,8.70
2019-03-04T09:47:56.259Z,8.80
2019-03-04T09:50:26.666Z,8.80
2019-03-04T09:52:53.121Z,8.80
2019-03-04T09:55:19.862Z,8.80
2019-03-04T09:57:46.014Z,8.80
2019-03-04T10:00:36.430Z,8.90
2019-03-04T10:03:21.682Z,8.90
2019-03-04T10:06:12.445Z,9.00
2019-03-04T10:09:17.553Z,9.10
2019-03-04T10:11:50.608Z,9.10
2019-03-04T10:14:40.325Z,9.10
2019-03-04T10:17:28.498Z,9.10
2019-03-04T10:20:31.967Z,9.00
2019-03-04T10:23:27.857Z,9.00
2019-03-04T10:26:09.883Z,9.00
2019-03-04T10:28:57.998Z,9.00
2019-03-04T10:32:03.373Z,9.00
2019-03-04T10:35:01.718Z,8.90
2019-03-04T10:37:40.748Z,8.90
2019-03-04T10:40:10.810Z,8.90
2019-03-04T10:43:12.823Z,8.90
2019-03-04T10:45:51.724Z,8.80
2019-03-04T10:48:18.007Z,8.80
2019-03-04T10:50:44.670Z,8.80
2019-03-04T10:53:11.000Z,8.80
2019-03-04T10:55:42.588Z,8.80
2019-03-04T10:58:09.004Z,8.70
2019-03-04T11:00:35.470Z,8.70
2019-03-04T11:03:01.603Z,8.70
2019-03-04T11:05:29.498Z,8.70
2019-03-04T11:07:55.687Z,8.70
2019-03-04T11:10:21.857Z,8.70
2019-03-04T11:12:48.083Z,8.60
2019-03-04T11:15:20.114Z,8.60
2019-03-04T11:17:46.395Z,8.60
2019-03-04T11:20:12.740Z,8.60
2019-03-04T11:25:31.216Z,8.60
2019-03-04T11:27:57.680Z,8.60
2019-03-04T11:30:32.927Z,8.60
2019-03-04T11:32:59.374Z,8.60
2019-03-04T11:35:25.687Z,8.60
2019-03-04T11:37:51.843Z,8.60
2019-03-04T11:40:35.125Z,8.50
2019-03-04T11:43:01.235Z,8.50
2019-03-04T11:45:27.483Z,8.50
2019-03-04T11:47:53.748Z,8.50
2019-03-04T11:50:20.093Z,8.50
2019-03-04T11:52:46.551Z,8.60
2019-03-04T11:55:16.115Z,8.60
2019-03-04T11:57:42.339Z,8.60
2019-03-04T12:00:26.766Z,8.70
2019-03-04T12:02:53.233Z,8.70
2019-03-04T12:05:19.580Z,8.60
2019-03-04T12:07:45.912Z,8.60
2019-03-04T12:10:14.774Z,8.60
2019-03-04T12:12:41.234Z,8.60
2019-03-04T12:15:16.286Z,8.60
2019-03-04T12:17:42.675Z,8.60
2019-03-04T12:20:10.947Z,8.60
2019-03-04T12:22:40.214Z,8.70
2019-03-04T12:25:12.537Z,8.70
2019-03-04T12:27:39.092Z,8.70
2019-03-04T12:30:11.914Z,8.70
2019-03-04T12:32:38.371Z,8.60
2019-03-04T12:35:07.433Z,8.70
2019-03-04T12:37:33.662Z,8.60
2019-03-04T12:39:59.969Z,8.70
2019-03-04T12:42:26.266Z,8.60
2019-03-04T12:44:52.503Z,8.70
2019-03-04T12:47:18.801Z,8.80
2019-03-04T12:49:45.149Z,8.80
2019-03-04T12:52:18.078Z,8.80
2019-03-04T12:54:47.731Z,8.90
2019-03-04T12:57:14.116Z,9.00
2019-03-04T12:59:40.493Z,9.10
2019-03-04T13:02:11.687Z,9.20
2019-03-04T13:04:38.003Z,9.20
2019-03-04T13:07:04.500Z,9.10
2019-03-04T13:09:30.839Z,9.20
2019-03-04T13:11:57.066Z,9.10
2019-03-04T13:14:23.214Z,9.10
2019-03-04T13:16:51.409Z,9.10
2019-03-04T13:19:18.433Z,9.40
2019-03-04T13:21:44.670Z,9.60
2019-03-04T13:24:11.138Z,9.80
2019-03-04T13:26:37.536Z,9.90
2019-03-04T13:29:05.001Z,10.00
2019-03-04T13:31:31.330Z,10.00
2019-03-04T13:33:57.623Z,10.10
2019-03-04T13:36:23.879Z,10.30
2019-03-04T13:38:50.348Z,10.30
2019-03-04T13:41:16.629Z,10.40
2019-03-04T13:43:46.192Z,10.40
2019-03-04T13:46:12.536Z,10.50
2019-03-04T13:48:38.717Z,10.40
2019-03-04T13:51:09.056Z,10.40
2019-03-04T13:53:43.576Z,10.50
2019-03-04T13:56:09.926Z,10.60
2019-03-04T13:58:36.191Z,10.50
2019-03-04T14:01:03.903Z,10.60
2019-03-04T14:03:30.280Z,10.70
2019-03-04T14:06:12.493Z,10.70
2019-03-04T14:08:38.834Z,10.70
2019-03-04T14:11:05.184Z,10.80
2019-03-04T14:13:31.576Z,10.80
2019-03-04T14:16:03.294Z,10.80
2019-03-04T14:18:29.519Z,10.90
2019-03-04T14:20:55.852Z,10.90
2019-03-04T14:23:22.566Z,10.80
2019-03-04T14:25:55.246Z,10.80
2019-03-04T14:28:21.468Z,10.80
2019-03-04T14:30:48.727Z,10.90
2019-03-04T14:33:16.009Z,10.90
2019-03-04T14:35:42.312Z,10.90
2019-03-04T14:38:08.546Z,10.90
2019-03-04T14:40:34.668Z,10.90
2019-03-04T14:43:01.011Z,10.90
2019-03-04T14:45:27.699Z,10.90
2019-03-04T14:48:00.183Z,10.90
2019-03-04T14:50:28.442Z,10.90
2019-03-04T14:52:57.610Z,10.90
2019-03-04T14:55:31.968Z,10.90
2019-03-04T14:58:02.121Z,10.80
2019-03-04T15:00:43.149Z,10.70
2019-03-04T15:03:23.251Z,10.50
2019-03-04T15:05:44.304Z,10.40
2019-03-04T15:08:14.055Z,10.30
2019-03-04T15:10:51.968Z,10.20
2019-03-04T15:13:14.102Z,10.30
2019-03-04T15:15:40.568Z,10.30
2019-03-04T15:18:07.021Z,10.20
2019-03-04T15:20:43.097Z,10.00
2019-03-04T15:23:11.834Z,9.90
2019-03-04T15:25:40.451Z,9.80
2019-03-04T15:28:12.515Z,9.70
2019-03-04T15:30:40.085Z,9.60
2019-03-04T15:33:06.387Z,9.50
2019-03-04T15:35:32.677Z,9.40
2019-03-04T15:37:58.999Z,9.40
2019-03-04T15:40:26.794Z,9.40
2019-03-04T15:42:54.176Z,9.30
2019-03-04T15:45:20.515Z,9.30
2019-03-04T15:47:46.971Z,9.30
2019-03-04T15:50:13.635Z,9.30
2019-03-04T15:52:40.043Z,9.30
2019-03-04T15:55:10.517Z,9.30
2019-03-04T15:57:36.888Z,9.20
2019-03-04T16:00:06.914Z,9.20
2019-03-04T16:02:33.223Z,9.00
2019-03-04T16:04:59.373Z,8.80
2019-03-04T16:07:25.834Z,8.20
2019-03-04T16:09:52.172Z,7.80
2019-03-04T16:12:20.527Z,7.40
2019-03-04T16:14:46.905Z,7.30
2019-03-04T16:17:13.207Z,7.10
2019-03-04T16:19:39.374Z,6.80
2019-03-04T16:22:05.804Z,6.60
2019-03-04T16:24:32.239Z,6.50
2019-03-04T16:27:05.500Z,6.50
2019-03-04T16:29:37.061Z,6.50
2019-03-04T16:31:59.937Z,6.50
2019-03-04T16:34:26.289Z,6.50
2019-03-04T16:36:52.695Z,6.40
2019-03-04T16:39:19.674Z,6.40
2019-03-04T16:41:46.180Z,6.40
2019-03-04T16:44:12.435Z,6.40
2019-03-04T16:46:38.696Z,6.40
2019-03-04T16:49:05.330Z,6.30
2019-03-04T16:51:31.701Z,6.20
2019-03-04T16:53:58.078Z,6.20
2019-03-04T16:56:29.774Z,6.20
2019-03-04T16:58:56.140Z,6.10
2019-03-04T17:01:22.380Z,6.10
2019-03-04T17:03:48.611Z,6.10
2019-03-04T17:06:14.806Z,6.10
2019-03-04T17:08:41.044Z,6.10
2019-03-04T17:11:07.592Z,6.10
2019-03-04T17:13:33.751Z,6.00
2019-03-04T17:16:00.071Z,6.00
2019-03-04T17:18:26.437Z,6.00
2019-03-04T17:20:52.671Z,6.00
2019-03-04T17:23:18.914Z,6.00
2019-03-04T17:25:45.260Z,6.00
2019-03-04T17:28:11.492Z,6.00
2019-03-04T17:30:37.859Z,6.00
2019-03-04T17:33:04.097Z,6.00
2019-03-04T17:35:30.431Z,6.00
2019-03-04T17:37:56.769Z,6.00
2019-03-04T17:40:27.346Z,6.00
2019-03-04T17:42:53.701Z,6.00
2019-03-04T17:45:21.246Z,6.00
2019-03-04T17:47:47.616Z,6.00
2019-03-04T17:50:26.677Z,6.00
2019-03-04T17:52:52.898Z,5.90
2019-03-04T17:55:19.436Z,5.90
2019-03-04T17:57:45.677Z,5.90
2019-03-04T18:00:17.374Z,5.80
2019-03-04T18:02:43.902Z,5.80
2019-03-04T18:05:10.346Z,5.80
2019-03-04T18:07:36.658Z,5.80
2019-03-04T18:10:05.602Z,5.70
2019-03-04T18:12:31.840Z,5.70
2019-03-04T18:14:57.997Z,5.60
2019-03-04T18:17:24.267Z,5.60
2019-03-04T18:19:50.489Z,5.60
2019-03-04T18:22:16.740Z,5.50
2019-03-04T18:24:43.182Z,5.50
2019-03-04T18:27:09.537Z,5.50
2019-03-04T18:29:48.568Z,5.50
2019-03-04T18:32:21.496Z,5.50
2019-03-04T18:34:57.375Z,5.40
2019-03-04T18:37:44.065Z,5.40
2019-03-04T18:40:22.905Z,5.40
2019-03-04T18:42:58.732Z,5.40
2019-03-04T18:45:37.489Z,5.40
2019-03-04T18:48:34.897Z,5.30
2019-03-04T18:51:01.041Z,5.30
2019-03-04T18:53:27.262Z,5.30
2019-03-04T18:55:53.521Z,5.30
2019-03-04T18:58:19.753Z,5.30
2019-03-04T19:00:46.297Z,5.40
2019-03-04T19:03:12.479Z,5.30
2019-03-04T19:05:38.796Z,5.40
2019-03-04T19:08:05.132Z,5.40
2019-03-04T19:10:31.499Z,5.30
2019-03-04T19:12:57.927Z,5.40
2019-03-04T19:15:24.161Z,5.40
2019-03-04T19:17:50.284Z,5.40
2019-03-04T19:20:20.349Z,5.40
2019-03-04T19:22:46.655Z,5.40
2019-03-04T19:25:13.171Z,5.30
2019-03-04T19:27:39.386Z,5.30
2019-03-04T19:30:08.401Z,5.20
2019-03-04T19:32:34.535Z,5.20
2019-03-04T19:35:00.755Z,5.10
2019-03-04T19:37:27.015Z,5.10
2019-03-04T19:39:53.295Z,5.00
2019-03-04T19:42:19.536Z,4.90
2019-03-04T19:44:45.934Z,4.80
2019-03-04T19:47:12.258Z,4.80
2019-03-04T19:49:38.695Z,4.80
2019-03-04T19:52:05.060Z,4.80
2019-03-04T19:54:31.272Z,4.70
2019-03-04T19:56:58.068Z,4.70
2019-03-04T19:59:24.510Z,4.70
2019-03-04T20:01:50.898Z,4.50
2019-03-04T20:04:17.324Z,4.50
2019-03-04T20:06:43.539Z,4.40
2019-03-04T20:09:09.998Z,4.40
2019-03-04T20:11:36.518Z,4.40
2019-03-04T20:14:03.291Z,4.30
2019-03-04T20:16:29.716Z,4.30
2019-03-04T20:18:56.117Z,4.30
2019-03-04T20:21:22.345Z,4.30
2019-03-04T20:23:48.828Z,4.40
2019-03-04T20:26:16.034Z,4.40
2019-03-04T20:28:42.463Z,4.40
2019-03-04T20:31:08.812Z,4.40
2019-03-04T20:33:35.124Z,4.40
2019-03-04T20:36:01.454Z,4.40
2019-03-04T20:38:31.088Z,4.40
2019-03-04T20:40:57.352Z,4.40
2019-03-04T20:43:23.627Z,4.40
2019-03-04T20:45:49.849Z,4.40
2019-03-04T20:48:16.132Z,4.40
2019-03-04T20:50:42.664Z,4.40
2019-03-04T20:53:09.102Z,4.40
2019-03-04T20:55:35.470Z,4.30
2019-03-04T20:58:01.978Z,4.30
2019-03-04T21:00:39.279Z,4.30
2019-03-04T21:03:06.942Z,4.30
2019-03-04T21:05:35.507Z,4.30
2019-03-04T21:08:01.908Z,4.20
2019-03-04T21:10:28.287Z,4.20
2019-03-04T21:12:56.612Z,4.20
2019-03-04T21:15:23.030Z,4.20
2019-03-04T21:17:49.300Z,4.30
2019-03-04T21:20:16.873Z,4.30
2019-03-04T21:22:43.835Z,4.30
2019-03-04T21:25:33.687Z,4.30
2019-03-04T21:28:00.585Z,4.30
2019-03-04T21:30:56.430Z,4.30
2019-03-04T21:33:26.395Z,4.30
2019-03-04T21:36:02.646Z,4.30
2019-03-04T21:38:29.237Z,4.30
2019-03-04T21:41:00.575Z,4.30
2019-03-04T21:43:33.630Z,4.30
2019-03-04T21:46:06.628Z,4.30
2019-03-04T21:48:42.035Z,4.30
2019-03-04T21:51:23.975Z,4.30
2019-03-04T21:53:51.119Z,4.30
2019-03-04T21:56:36.064Z,4.30
2019-03-04T21:59:05.187Z,4.20
2019-03-04T22:01:38.119Z,4.20
2019-03-04T22:04:04.525Z,4.20
2019-03-04T22:06:30.752Z,4.20
2019-03-04T22:08:56.883Z,4.20
2019-03-04T22:11:23.155Z,4.30
2019-03-04T22:13:49.746Z,4.20
2019-03-04T22:16:16.116Z,4.30
2019-03-04T22:18:42.497Z,4.30
2019-03-04T22:21:16.551Z,4.30
2019-03-04T22:23:37.121Z,4.30
2019-03-04T22:26:03.464Z,4.30
2019-03-04T22:28:32.402Z,4.30
2019-03-04T22:30:58.718Z,4.20
2019-03-04T22:33:24.972Z,4.20
2019-03-04T22:35:51.101Z,4.20
2019-03-04T22:38:17.361Z,4.20
2019-03-04T22:40:44.480Z,4.20
2019-03-04T22:43:10.959Z,4.20
2019-03-04T22:45:37.227Z,4.20
2019-03-04T22:48:03.667Z,4.20
2019-03-04T22:50:29.931Z,4.10
2019-03-04T22:52:56.141Z,4.10
2019-03-04T22:55:31.671Z,4.10
2019-03-04T22:57:57.849Z,4.00
2019-03-04T23:00:41.760Z,4.00
2019-03-04T23:03:08.194Z,3.90
2019-03-04T23:05:34.533Z,3.90
2019-03-04T23:08:00.782Z,3.90
2019-03-04T23:10:36.665Z,3.90
2019-03-04T23:13:06.336Z,3.90
2019-03-04T23:15:32.699Z,3.90
2019-03-04T23:17:58.873Z,3.80
2019-03-04T23:20:25.132Z,3.80
2019-03-04T23:22:55.520Z,3.80
2019-03-04T23:25:23.220Z,3.70
2019-03-04T23:27:49.462Z,3.70
2019-03-04T23:30:15.905Z,3.70
2019-03-04T23:32:42.145Z,3.70
2019-03-04T23:35:08.696Z,3.60
2019-03-04T23:37:35.121Z,3.60
2019-03-04T23:40:01.443Z,3.60
2019-03-04T23:42:27.869Z,3.60
2019-03-04T23:44:54.820Z,3.60
2019-03-04T23:47:21.062Z,3.60
2019-03-04T23:49:51.079Z,3.60
2019-03-04T23:52:17.227Z,3.50
2019-03-04T23:54:43.475Z,3.50
2019-03-04T23:57:09.843Z,3.50
2019-03-04T23:59:35.992Z,3.50
